Time;durP1;ratioP1;P1;durP2;ratioP2;P2;SDS_P1;SDS_P2;PMS_P1;PMS_P2;Temp;Humidity;BMP_temperature;BMP_pressure;BME280_temperature;BME280_humidity;BME280_pressure;Samples;Min_cycle;Max_cycle;Signal;HPM_P1;HPM_P2
2022/11/15 00:02:16;;;;;;;17.98;10.40;;;23.10;59.10;;;;;;5034148;28;20355;-70
2022/11/15 00:05:00;;;;;;;19.38;12.20;;;23.00;59.10;;;;;;5050088;28;20077;-69
2022/11/15 00:07:45;;;;;;;16.83;11.27;;;23.00;59.10;;;;;;5053870;28;20032;-69
2022/11/15 00:10:29;;;;;;;19.50;11.77;;;22.90;59.30;;;;;;5041637;28;20050;-69
2022/11/15 00:13:14;;;;;;;20.55;13.23;;;23.00;59.20;;;;;;5031623;28;20046;-69
2022/11/15 00:16:00;;;;;;;19.52;12.55;;;22.80;59.30;;;;;;5046243;28;20025;-69
2022/11/15 00:18:45;;;;;;;19.42;11.95;;;22.90;59.50;;;;;;5047428;28;20107;-69
2022/11/15 00:21:29;;;;;;;17.48;12.05;;;23.00;59.30;;;;;;5051561;28;20047;-69
2022/11/15 00:24:14;;;;;;;17.65;11.85;;;22.90;59.40;;;;;;5065725;28;20374;-69
2022/11/15 00:26:59;;;;;;;14.88;11.52;;;22.90;59.30;;;;;;5044866;28;20181;-69
2022/11/15 00:29:43;;;;;;;15.95;11.23;;;23.00;59.30;;;;;;5048642;28;20114;-69
2022/11/15 00:32:32;;;;;;;15.95;10.80;;;22.80;59.20;;;;;;5051359;28;20076;-69
2022/11/15 00:35:17;;;;;;;16.77;10.93;;;22.90;59.30;;;;;;5033761;28;20033;-69
2022/11/15 00:38:03;;;;;;;17.30;11.50;;;22.90;59.10;;;;;;5032417;28;20037;-70
2022/11/15 00:40:47;;;;;;;16.95;11.80;;;22.90;59.20;;;;;;5034416;28;20024;-69
2022/11/15 00:43:32;;;;;;;20.20;12.13;;;22.90;59.00;;;;;;5044940;28;20017;-69
2022/11/15 00:46:16;;;;;;;16.95;11.40;;;22.80;58.90;;;;;;5041830;28;20052;-68
2022/11/15 00:49:01;;;;;;;16.13;11.45;;;22.80;59.10;;;;;;5046554;28;20387;-69
2022/11/15 00:51:46;;;;;;;21.40;12.00;;;22.90;59.10;;;;;;5051212;28;20060;-69
2022/11/15 00:54:30;;;;;;;16.70;11.18;;;22.80;59.00;;;;;;5043249;28;20359;-69
2022/11/15 00:57:14;;;;;;;18.83;11.70;;;22.80;59.00;;;;;;5049437;28;20778;-69
2022/11/15 00:59:59;;;;;;;19.02;11.60;;;22.80;58.90;;;;;;5041502;28;20030;-69
2022/11/15 01:02:44;;;;;;;17.08;11.05;;;22.80;58.90;;;;;;5035986;28;20060;-69
2022/11/15 01:05:28;;;;;;;18.42;11.77;;;22.60;58.90;;;;;;5046175;28;20055;-69
2022/11/15 01:08:15;;;;;;;18.55;11.95;;;22.70;58.90;;;;;;5050247;28;20478;-69
2022/11/15 01:11:05;;;;;;;16.38;12.07;;;22.60;59.00;;;;;;5047148;28;20055;-69
2022/11/15 01:13:49;;;;;;;16.80;12.38;;;22.60;59.00;;;;;;5046717;28;20037;-67
2022/11/15 01:16:34;;;;;;;18.88;12.15;;;22.60;59.00;;;;;;5040690;28;20120;-69
2022/11/15 01:19:18;;;;;;;16.50;11.57;;;22.80;59.00;;;;;;5046562;28;20219;-69
2022/11/15 01:22:03;;;;;;;16.52;11.93;;;22.70;58.90;;;;;;5042115;28;20034;-69
2022/11/15 01:24:49;;;;;;;16.08;11.02;;;22.80;58.90;;;;;;5012509;28;20041;-69
2022/11/15 01:27:34;;;;;;;16.52;11.60;;;22.60;58.80;;;;;;5048064;28;20048;-69
2022/11/15 01:30:19;;;;;;;14.88;11.57;;;22.70;58.90;;;;;;5041229;28;20095;-69
2022/11/15 01:33:03;;;;;;;18.45;11.82;;;22.70;58.80;;;;;;5030377;28;20346;-69
2022/11/15 01:35:48;;;;;;;18.42;11.50;;;22.80;58.70;;;;;;5046738;28;20061;-69
2022/11/15 01:38:32;;;;;;;18.73;11.60;;;22.80;58.60;;;;;;5051732;28;20035;-69
2022/11/15 01:41:20;;;;;;;17.45;11.00;;;22.70;58.70;;;;;;5047231;28;20420;-69
2022/11/15 01:44:42;;;;;;;17.08;10.68;;;22.80;58.70;;;;;;5047883;28;20072;-69
2022/11/15 01:47:34;;;;;;;15.48;10.98;;;22.80;58.60;;;;;;5030547;28;20065;-69
2022/11/15 01:50:25;;;;;;;17.17;10.88;;;22.60;58.60;;;;;;5042015;28;20068;-69
2022/11/15 01:53:10;;;;;;;18.98;11.57;;;22.60;58.60;;;;;;5052007;28;20036;-69
2022/11/15 01:55:56;;;;;;;17.65;10.95;;;22.60;58.70;;;;;;5042930;28;20110;-69
2022/11/15 01:58:41;;;;;;;18.00;12.35;;;22.50;58.60;;;;;;5020816;28;20071;-69
2022/11/15 02:01:28;;;;;;;16.73;10.18;;;22.50;58.60;;;;;;5038911;28;20088;-69
2022/11/15 02:04:33;;;;;;;15.77;10.35;;;22.50;58.60;;;;;;5029787;28;20025;-69
2022/11/15 02:07:21;;;;;;;18.08;11.07;;;22.40;58.70;;;;;;5031414;28;20029;-70
2022/11/15 02:10:17;;;;;;;16.58;10.80;;;22.60;58.70;;;;;;5030293;28;20128;-69
2022/11/15 02:13:02;;;;;;;14.02;10.10;;;22.50;58.80;;;;;;5010499;28;20120;-69
2022/11/15 02:15:59;;;;;;;13.50;9.15;;;22.50;58.70;;;;;;5039843;28;20063;-69
2022/11/15 02:19:02;;;;;;;14.43;10.05;;;22.70;58.60;;;;;;5020411;28;20029;-69
2022/11/15 02:21:59;;;;;;;16.55;10.82;;;22.60;58.30;;;;;;5028901;28;20025;-69
2022/11/15 02:25:15;;;;;;;16.70;10.65;;;22.60;58.30;;;;;;5030465;28;20054;-70
2022/11/15 02:28:00;;;;;;;16.42;11.10;;;22.60;58.30;;;;;;5030413;28;20044;-69
2022/11/15 02:31:08;;;;;;;16.95;10.60;;;22.70;58.30;;;;;;5034968;28;20033;-69
2022/11/15 02:34:20;;;;;;;18.13;10.57;;;22.60;58.20;;;;;;5019173;28;20079;-69
2022/11/15 02:37:16;;;;;;;17.90;11.50;;;22.60;58.20;;;;;;5028433;28;20037;-68
2022/11/15 02:40:19;;;;;;;16.50;11.25;;;22.60;58.20;;;;;;5024047;28;20025;-69
2022/11/15 02:49:49;;;;;;;16.20;11.27;;;22.60;58.20;;;;;;4990375;28;20050;-69
2022/11/15 02:52:33;;;;;;;16.98;10.32;;;22.60;58.30;;;;;;5008765;28;20176;-68
2022/11/15 02:55:41;;;;;;;17.58;11.35;;;22.60;58.30;;;;;;4993131;28;20486;-69
2022/11/15 02:58:35;;;;;;;18.80;11.18;;;22.50;58.30;;;;;;4996947;28;20042;-70
2022/11/15 03:02:13;;;;;;;17.88;11.35;;;22.40;58.30;;;;;;5005063;28;20042;-69
2022/11/15 03:04:58;;;;;;;19.25;10.90;;;22.50;58.50;;;;;;4960634;28;20039;-69
2022/11/15 03:08:09;;;;;;;15.75;11.80;;;22.40;58.40;;;;;;4968617;28;20043;-69
2022/11/15 03:11:13;;;;;;;18.35;10.65;;;22.40;58.40;;;;;;4953077;28;20053;-69
2022/11/15 03:14:19;;;;;;;19.27;11.30;;;22.40;58.40;;;;;;4962021;28;20035;-69
2022/11/15 03:17:12;;;;;;;15.95;10.50;;;22.50;58.40;;;;;;4961277;28;20365;-69
2022/11/15 03:20:00;;;;;;;20.38;11.50;;;22.50;58.20;;;;;;4949486;28;20055;-69
2022/11/15 03:22:47;;;;;;;15.18;11.15;;;22.50;58.20;;;;;;4949564;28;20046;-69
2022/11/15 03:25:34;;;;;;;15.57;11.25;;;22.50;58.20;;;;;;4954204;28;20050;-69
2022/11/15 03:28:57;;;;;;;14.25;9.27;;;22.70;58.20;;;;;;4976514;28;20046;-69
2022/11/15 03:31:46;;;;;;;16.57;10.90;;;22.50;58.10;;;;;;4941506;29;20042;-69
2022/11/15 03:34:45;;;;;;;19.60;11.30;;;22.50;58.10;;;;;;4947728;28;20047;-69
2022/11/15 03:37:40;;;;;;;17.42;10.85;;;22.40;58.10;;;;;;4949475;29;20185;-69
2022/11/15 03:40:42;;;;;;;15.77;9.88;;;22.50;58.20;;;;;;4976223;28;20085;-69
2022/11/15 03:43:39;;;;;;;19.92;11.32;;;22.40;58.20;;;;;;4979220;28;20341;-69
2022/11/15 03:46:28;;;;;;;19.20;11.35;;;22.40;58.40;;;;;;4978163;28;20685;-69
2022/11/15 03:49:34;;;;;;;17.75;11.82;;;22.40;58.40;;;;;;4977112;28;20034;-69
2022/11/15 03:52:20;;;;;;;18.17;10.88;;;22.20;58.20;;;;;;4980790;28;20034;-69
2022/11/15 03:55:07;;;;;;;15.38;10.48;;;22.40;58.30;;;;;;4987547;28;20057;-69
2022/11/15 03:57:56;;;;;;;20.52;11.75;;;22.20;58.20;;;;;;4983488;28;20046;-69
2022/11/15 04:00:40;;;;;;;19.67;11.95;;;22.30;58.30;;;;;;4987073;28;20026;-69
2022/11/15 04:03:25;;;;;;;18.67;12.13;;;22.20;58.20;;;;;;4973049;28;20058;-69
2022/11/15 04:06:10;;;;;;;18.35;11.93;;;22.30;58.40;;;;;;4992041;28;20046;-69
2022/11/15 04:08:54;;;;;;;24.08;11.70;;;22.20;58.20;;;;;;5038901;28;20060;-70
2022/11/15 04:11:39;;;;;;;16.08;10.23;;;22.20;58.30;;;;;;5043711;28;20033;-69
2022/11/15 04:14:24;;;;;;;17.45;10.88;;;22.20;58.30;;;;;;5044656;28;20358;-69
2022/11/15 04:17:08;;;;;;;21.15;11.93;;;22.10;58.20;;;;;;5038051;28;20022;-69
2022/11/15 04:26:19;;;;;;;18.75;11.18;;;22.10;58.20;;;;;;5012592;28;20052;-69
2022/11/15 04:32:07;;;;;;;15.57;10.32;;;22.30;58.20;;;;;;4999800;28;20049;-69
2022/11/15 04:34:52;;;;;;;15.02;9.73;;;22.30;58.00;;;;;;5026768;28;20168;-69
2022/11/15 04:37:36;;;;;;;19.45;11.57;;;22.40;57.90;;;;;;5025998;28;20061;-69
2022/11/15 04:40:21;;;;;;;17.67;11.55;;;22.40;57.80;;;;;;5030893;28;20048;-69
2022/11/15 04:43:05;;;;;;;16.48;11.20;;;22.40;57.80;;;;;;5011071;28;20053;-69
2022/11/15 04:45:50;;;;;;;20.52;11.25;;;22.50;57.80;;;;;;5000059;28;20053;-69
2022/11/15 04:48:34;;;;;;;17.45;10.27;;;22.40;57.80;;;;;;5011919;28;20086;-69
2022/11/15 04:51:19;;;;;;;17.52;11.15;;;22.40;57.80;;;;;;5030575;28;20044;-69
2022/11/15 04:54:04;;;;;;;18.55;11.40;;;22.60;57.90;;;;;;5030319;28;20042;-69
2022/11/15 04:56:49;;;;;;;18.25;10.43;;;22.50;57.80;;;;;;5015114;28;20045;-69
2022/11/15 04:59:33;;;;;;;16.63;11.05;;;22.50;57.80;;;;;;5017946;28;20056;-69
2022/11/15 05:02:18;;;;;;;16.63;9.70;;;22.60;57.90;;;;;;5042294;28;20021;-69
2022/11/15 05:05:02;;;;;;;16.20;10.23;;;22.50;57.80;;;;;;5051438;28;20383;-69
2022/11/15 05:07:47;;;;;;;15.07;9.07;;;22.60;57.70;;;;;;5048583;28;20115;-69
2022/11/15 05:10:31;;;;;;;17.67;9.75;;;22.60;57.80;;;;;;5050429;28;20102;-69
2022/11/15 05:13:16;;;;;;;18.23;10.50;;;22.60;57.50;;;;;;5042442;28;20454;-69
2022/11/15 05:16:01;;;;;;;17.00;9.30;;;22.80;57.30;;;;;;5049560;28;20033;-69
2022/11/15 05:18:45;;;;;;;13.70;9.40;;;22.80;57.50;;;;;;5045376;28;20033;-70
2022/11/15 05:21:30;;;;;;;16.45;10.45;;;22.70;57.60;;;;;;5032207;28;20022;-69
2022/11/15 05:24:15;;;;;;;17.08;10.48;;;22.70;57.60;;;;;;5025238;28;20032;-69
2022/11/15 05:26:59;;;;;;;15.05;10.23;;;22.60;57.30;;;;;;5030207;28;20038;-69
2022/11/15 05:29:44;;;;;;;13.20;9.07;;;22.80;57.30;;;;;;5031912;28;20026;-69
2022/11/15 05:32:29;;;;;;;13.90;9.77;;;22.80;57.20;;;;;;5024552;28;20036;-69
2022/11/15 05:35:30;;;;;;;22.05;9.70;;;22.70;57.20;;;;;;5021453;28;20533;-69
2022/11/15 05:38:15;;;;;;;11.68;8.02;;;22.80;57.20;;;;;;5031210;28;20025;-68
2022/11/15 05:41:01;;;;;;;12.90;8.50;;;22.90;57.10;;;;;;5029387;28;20033;-72
2022/11/15 05:43:48;;;;;;;9.13;6.78;;;22.90;54.50;;;;;;5029851;28;20041;-70
2022/11/15 05:46:34;;;;;;;8.93;6.28;;;22.80;50.20;;;;;;5027397;28;20779;-70
2022/11/15 05:49:21;;;;;;;6.97;5.25;;;22.80;50.40;;;;;;5027774;28;20033;-71
2022/11/15 05:52:09;;;;;;;6.15;4.55;;;22.80;49.00;;;;;;5030430;28;20116;-70
2022/11/15 05:54:55;;;;;;;8.70;6.13;;;23.00;48.60;;;;;;5032027;28;20033;-70
2022/11/15 05:57:40;;;;;;;9.73;5.22;;;23.00;49.20;;;;;;5027229;28;20034;-70
2022/11/15 06:00:24;;;;;;;8.48;6.10;;;22.90;49.10;;;;;;5024301;28;20394;-71
2022/11/15 06:03:10;;;;;;;12.38;4.57;;;23.00;51.80;;;;;;5029123;28;20021;-71
2022/11/15 06:05:54;;;;;;;19.17;12.43;;;23.10;50.90;;;;;;5028808;28;20164;-70
2022/11/15 06:08:39;;;;;;;8.30;5.63;;;23.10;49.10;;;;;;5032158;28;20033;-70
2022/11/15 06:11:23;;;;;;;10.57;7.80;;;23.20;48.50;;;;;;5044924;28;20053;-72
2022/11/15 06:14:08;;;;;;;10.95;7.75;;;23.30;60.20;;;;;;5033197;28;20446;-71
2022/11/15 06:16:53;;;;;;;10.50;7.95;;;23.40;58.70;;;;;;5033396;28;20038;-69
2022/11/15 06:19:38;;;;;;;11.32;7.70;;;23.60;58.90;;;;;;5023336;28;20063;-68
2022/11/15 06:22:22;;;;;;;10.73;7.53;;;23.60;59.00;;;;;;5030011;28;20030;-68
2022/11/15 06:25:07;;;;;;;12.35;7.55;;;23.60;59.20;;;;;;5032842;28;20045;-69
2022/11/15 06:27:53;;;;;;;13.05;7.22;;;23.50;58.00;;;;;;5046437;28;20513;-70
2022/11/15 06:30:37;;;;;;;8.20;6.13;;;23.50;60.30;;;;;;5036352;28;20116;-70
2022/11/15 06:33:21;;;;;;;7.97;5.75;;;23.60;60.30;;;;;;5029665;28;20061;-69
2022/11/15 06:36:09;;;;;;;10.60;5.93;;;23.70;59.60;;;;;;5032850;28;20052;-68
2022/11/15 06:38:53;;;;;;;7.45;5.57;;;23.60;60.10;;;;;;5038686;28;20025;-69
2022/11/15 06:41:38;;;;;;;11.98;6.07;;;23.70;60.00;;;;;;5030782;28;20025;-68
2022/11/15 06:44:22;;;;;;;10.35;6.15;;;23.70;60.20;;;;;;5030499;28;20021;-69
2022/11/15 06:47:07;;;;;;;10.63;5.93;;;23.80;59.10;;;;;;5032450;28;20042;-68
2022/11/15 06:49:52;;;;;;;10.40;5.68;;;23.70;60.60;;;;;;5030934;28;20044;-68
2022/11/15 06:52:36;;;;;;;9.93;5.32;;;23.80;59.70;;;;;;5045338;28;20026;-69
2022/11/15 06:55:21;;;;;;;7.07;5.75;;;23.80;61.30;;;;;;5034041;28;20029;-70
2022/11/15 06:58:06;;;;;;;9.43;6.18;;;23.70;61.40;;;;;;5044635;28;20107;-70
2022/11/15 07:00:50;;;;;;;9.38;5.55;;;23.70;59.60;;;;;;5017822;28;20131;-72
2022/11/15 07:03:39;;;;;;;13.48;5.60;;;23.70;60.50;;;;;;5043707;28;20033;-71
2022/11/15 07:06:24;;;;;;;7.15;5.45;;;23.90;61.70;;;;;;5028753;28;20087;-69
2022/11/15 07:09:08;;;;;;;7.47;4.85;;;23.80;63.50;;;;;;5028459;28;20025;-70
2022/11/15 07:11:53;;;;;;;7.40;5.78;;;23.80;62.60;;;;;;5030876;28;20427;-70
2022/11/15 07:14:37;;;;;;;5.28;4.32;;;23.90;62.30;;;;;;5027798;28;20038;-72
2022/11/15 07:17:22;;;;;;;4.97;3.85;;;23.90;61.80;;;;;;5027025;28;20141;-69
2022/11/15 07:20:07;;;;;;;6.10;4.68;;;23.90;61.30;;;;;;5025201;28;20117;-70
2022/11/15 07:23:03;;;;;;;10.48;5.18;;;24.00;60.90;;;;;;5026022;28;20041;-70
2022/11/15 07:25:48;;;;;;;6.22;5.10;;;24.00;59.80;;;;;;5025307;28;20095;-72
2022/11/15 07:28:32;;;;;;;8.50;6.25;;;24.10;60.80;;;;;;5026290;28;20036;-70
2022/11/15 07:31:17;;;;;;;6.20;4.05;;;24.10;60.20;;;;;;5024944;28;20026;-72
2022/11/15 07:34:01;;;;;;;6.20;3.80;;;24.00;60.50;;;;;;5024513;28;20037;-70
2022/11/15 07:36:46;;;;;;;4.22;2.55;;;24.10;60.40;;;;;;5028622;28;20053;-70
2022/11/15 07:39:30;;;;;;;1.30;1.20;;;24.10;60.10;;;;;;5029436;28;20092;-70
2022/11/15 07:45:20;;;;;;;6.65;4.38;;;24.30;58.60;;;;;;5029273;28;20033;-73
2022/11/15 07:48:05;;;;;;;5.93;4.57;;;24.20;57.70;;;;;;5030825;28;20036;-71
2022/11/15 07:50:50;;;;;;;7.15;5.10;;;24.30;57.20;;;;;;5029717;28;20075;-71
2022/11/15 07:53:34;;;;;;;6.07;3.60;;;24.30;56.40;;;;;;5028929;28;20033;-70
2022/11/15 07:56:20;;;;;;;10.20;4.65;;;24.20;56.10;;;;;;5029995;28;20060;-70
2022/11/15 07:59:05;;;;;;;6.05;4.07;;;24.30;55.80;;;;;;5031653;28;20037;-71
2022/11/15 08:01:49;;;;;;;5.88;3.20;;;24.10;55.20;;;;;;5032001;28;20033;-72
2022/11/15 08:04:34;;;;;;;5.07;3.83;;;24.20;54.60;;;;;;5031972;28;20497;-72
2022/11/15 08:07:18;;;;;;;4.65;3.20;;;24.10;54.60;;;;;;5033776;28;20104;-71
2022/11/15 08:10:05;;;;;;;3.60;1.83;;;24.20;54.30;;;;;;5032325;28;20051;-71
2022/11/15 08:12:58;;;;;;;4.65;3.45;;;24.10;54.00;;;;;;5033283;28;20034;-71
2022/11/15 08:15:43;;;;;;;3.97;3.28;;;24.10;53.50;;;;;;5031053;28;20025;-72
2022/11/15 08:18:28;;;;;;;7.65;5.47;;;24.10;53.10;;;;;;5032190;28;20025;-70
2022/11/15 08:21:17;;;;;;;5.38;3.17;;;24.00;47.60;;;;;;5033697;28;20065;-71
2022/11/15 08:24:02;;;;;;;4.88;3.00;;;24.00;52.50;;;;;;5045286;28;20056;-71
2022/11/15 08:26:47;;;;;;;4.07;3.10;;;24.00;52.20;;;;;;5032405;28;20589;-72
2022/11/15 08:29:31;;;;;;;2.70;2.25;;;24.00;51.70;;;;;;5033159;28;20344;-68
2022/11/15 08:32:17;;;;;;;5.43;3.80;;;24.10;51.10;;;;;;5032365;28;20037;-69
2022/11/15 08:35:01;;;;;;;4.90;2.53;;;24.10;50.90;;;;;;5030568;28;20048;-68
2022/11/15 08:37:46;;;;;;;6.40;4.15;;;24.10;50.90;;;;;;5029069;28;20503;-68
2022/11/15 08:40:31;;;;;;;7.32;3.72;;;24.00;50.50;;;;;;5018415;28;20386;-68
2022/11/15 08:43:16;;;;;;;7.68;3.88;;;24.10;49.60;;;;;;5031889;28;20564;-70
2022/11/15 08:46:00;;;;;;;3.63;2.92;;;24.00;49.20;;;;;;5033049;28;20383;-70
2022/11/15 08:48:45;;;;;;;4.75;4.25;;;24.10;48.60;;;;;;5028987;28;20607;-73
2022/11/15 08:51:30;;;;;;;5.63;3.78;;;24.10;48.50;;;;;;5031321;28;20604;-73
2022/11/15 08:54:14;;;;;;;6.53;4.18;;;24.00;48.40;;;;;;5033418;28;20107;-73
2022/11/15 08:56:59;;;;;;;5.47;3.85;;;24.10;48.60;;;;;;5042111;28;20115;-73
2022/11/15 08:59:43;;;;;;;10.32;5.15;;;24.00;48.80;;;;;;5031674;28;20037;-73
2022/11/15 09:02:28;;;;;;;5.93;3.65;;;23.90;49.20;;;;;;5032164;28;20041;-73
2022/11/15 09:05:13;;;;;;;6.32;3.90;;;24.10;49.80;;;;;;5032914;28;20041;-73
2022/11/15 09:07:57;;;;;;;5.90;3.97;;;24.10;50.20;;;;;;5032755;28;20536;-73
2022/11/15 09:10:42;;;;;;;5.18;3.80;;;23.90;44.60;;;;;;5032840;28;20094;-73
2022/11/15 09:13:26;;;;;;;5.78;3.90;;;23.80;47.90;;;;;;5031460;28;20397;-73
2022/11/15 09:16:12;;;;;;;4.45;3.63;;;23.60;51.50;;;;;;5031637;28;20101;-73
2022/11/15 09:18:57;;;;;;;5.72;3.50;;;23.60;51.80;;;;;;5031986;28;20033;-73
2022/11/15 09:21:41;;;;;;;4.88;2.80;;;23.70;51.80;;;;;;5032196;28;20032;-73
2022/11/15 09:24:26;;;;;;;6.43;3.83;;;23.80;51.90;;;;;;5032179;28;20124;-73
2022/11/15 09:27:10;;;;;;;4.80;3.17;;;23.70;52.00;;;;;;5032066;28;20379;-73
2022/11/15 09:29:55;;;;;;;5.90;3.53;;;23.80;52.30;;;;;;5031917;28;20102;-73
2022/11/15 09:32:39;;;;;;;5.03;3.78;;;23.80;52.50;;;;;;5029268;28;20057;-73
2022/11/15 09:35:24;;;;;;;5.43;4.05;;;23.80;52.80;;;;;;5031228;28;20037;-73
2022/11/15 09:38:08;;;;;;;5.00;3.60;;;23.70;53.40;;;;;;5032105;28;20038;-73
2022/11/15 09:41:13;;;;;;;5.43;3.45;;;23.80;54.30;;;;;;5031537;28;20120;-73
2022/11/15 09:44:06;;;;;;;3.20;2.90;;;23.70;54.90;;;;;;5012511;28;20065;-73
2022/11/15 09:47:07;;;;;;;4.22;2.88;;;23.70;55.00;;;;;;5015055;28;20475;-73
2022/11/15 09:49:56;;;;;;;3.67;2.92;;;23.70;55.30;;;;;;5004595;28;20247;-73
2022/11/15 09:52:30;;;;;;;5.18;3.72;;;23.80;55.40;;;;;;5008821;28;20049;-71
2022/11/15 09:54:56;;;;;;;5.55;3.40;;;24.00;50.50;;;;;;5009559;28;20049;-70
2022/11/15 09:57:33;;;;;;;6.63;4.30;;;23.80;48.20;;;;;;5008888;28;20049;-72
2022/11/15 10:00:18;;;;;;;7.25;4.80;;;23.90;47.60;;;;;;5009306;28;20041;-72
2022/11/15 10:03:11;;;;;;;5.28;3.80;;;23.80;46.30;;;;;;5007759;28;20077;-72
2022/11/15 10:05:49;;;;;;;7.20;3.53;;;23.80;46.60;;;;;;5007054;28;20580;-72
2022/11/15 10:08:39;;;;;;;7.15;3.10;;;23.90;46.70;;;;;;4989497;28;20088;-72
2022/11/15 10:11:09;;;;;;;5.70;3.72;;;23.90;46.70;;;;;;5007971;28;20639;-72
2022/11/15 10:13:41;;;;;;;7.35;4.45;;;23.90;47.50;;;;;;5009333;28;20152;-72
2022/11/15 10:16:19;;;;;;;4.65;3.45;;;24.00;46.50;;;;;;5009291;28;20034;-71
2022/11/15 10:19:23;;;;;;;7.68;4.40;;;23.90;47.70;;;;;;5007355;28;20046;-71
2022/11/15 10:22:14;;;;;;;6.88;3.83;;;23.90;47.60;;;;;;5009217;28;20073;-71
2022/11/15 10:24:44;;;;;;;3.53;2.92;;;23.90;46.90;;;;;;5008922;28;20113;-72
2022/11/15 10:27:16;;;;;;;5.00;3.85;;;23.80;47.20;;;;;;5020300;28;20462;-72
2022/11/15 10:29:45;;;;;;;4.53;3.20;;;23.80;45.90;;;;;;5031127;28;20072;-72
2022/11/15 10:32:13;;;;;;;6.55;3.65;;;23.80;44.80;;;;;;5032707;28;20439;-72
2022/11/15 10:34:39;;;;;;;5.38;3.58;;;23.80;45.50;;;;;;5032155;28;20480;-69
2022/11/15 10:37:05;;;;;;;6.93;3.53;;;24.00;46.00;;;;;;5031451;28;20113;-72
2022/11/15 10:39:33;;;;;;;14.23;5.55;;;23.90;50.10;;;;;;5030698;28;20115;-72
2022/11/15 10:42:16;;;;;;;5.35;4.07;;;24.00;51.40;;;;;;5039304;28;20025;-72
2022/11/15 10:44:43;;;;;;;;;;;24.20;53.50;;;;;;5042236;28;20072;-73
2022/11/15 10:47:25;;;;;;;5.03;3.38;;;24.00;46.90;;;;;;5043145;28;20375;-70
2022/11/15 10:50:07;;;;;;;5.20;3.85;;;24.00;45.60;;;;;;5039507;28;20056;-70
2022/11/15 10:52:36;;;;;;;24.25;8.45;;;24.10;47.90;;;;;;5050796;28;20044;-69
2022/11/15 10:55:20;;;;;;;6.75;3.97;;;24.20;51.40;;;;;;5050941;28;20105;-71
2022/11/15 10:58:11;;;;;;;5.82;3.95;;;24.30;45.20;;;;;;5043106;28;20044;-70
2022/11/15 11:00:41;;;;;;;4.97;3.40;;;24.20;43.70;;;;;;4988687;28;20046;-71
2022/11/15 11:03:32;;;;;;;6.00;3.45;;;24.10;42.70;;;;;;4996409;28;20045;-71
2022/11/15 11:06:14;;;;;;;4.97;4.13;;;24.10;42.60;;;;;;4991271;28;20051;-71
2022/11/15 11:08:52;;;;;;;6.38;3.53;;;24.20;43.70;;;;;;5005754;28;20047;-71
2022/11/15 11:11:18;;;;;;;6.03;3.33;;;24.20;43.10;;;;;;5005926;28;20061;-72
2022/11/15 11:13:44;;;;;;;4.97;2.83;;;24.10;43.90;;;;;;4978498;28;20078;-70
2022/11/15 11:16:34;;;;;;;8.95;3.80;;;24.10;46.00;;;;;;4992942;28;20057;-71
2022/11/15 11:19:33;;;;;;;5.32;3.63;;;24.20;46.70;;;;;;5000531;28;20113;-72
2022/11/15 11:22:11;;;;;;;4.00;3.28;;;24.30;46.50;;;;;;4997097;28;20081;-72
2022/11/15 11:25:01;;;;;;;5.43;2.90;;;24.40;50.20;;;;;;5007067;28;20046;-71
2022/11/15 11:27:27;;;;;;;5.60;3.67;;;24.50;46.80;;;;;;4993576;28;20051;-72
2022/11/15 11:30:20;;;;;;;5.88;3.60;;;24.60;51.30;;;;;;5001052;28;20038;-71
2022/11/15 11:33:04;;;;;;;6.40;4.30;;;24.60;51.00;;;;;;4993368;28;20046;-72
2022/11/15 11:35:52;;;;;;;5.97;4.78;;;24.70;51.10;;;;;;4990972;28;20128;-71
2022/11/15 11:38:32;;;;;;;7.35;3.55;;;24.70;44.30;;;;;;5024872;28;20037;-72
2022/11/15 11:41:17;;;;;;;7.88;4.25;;;24.60;52.40;;;;;;5045601;28;20091;-72
2022/11/15 11:44:02;;;;;;;7.07;3.20;;;24.70;51.20;;;;;;5034569;28;20061;-72
2022/11/15 11:46:49;;;;;;;7.40;4.00;;;24.70;53.40;;;;;;5036206;28;20037;-73
2022/11/15 11:49:22;;;;;;;3.72;2.97;;;24.60;53.80;;;;;;5039189;28;20037;-72
2022/11/15 11:52:00;;;;;;;4.40;3.22;;;24.50;53.90;;;;;;5034602;28;20175;-73
2022/11/15 11:54:52;;;;;;;7.75;3.30;;;24.60;52.90;;;;;;5045376;28;20024;-72
2022/11/15 11:57:37;;;;;;;4.50;3.70;;;24.50;52.50;;;;;;5049733;28;20044;-72
2022/11/15 12:00:20;;;;;;;6.05;3.70;;;24.50;54.40;;;;;;5040903;28;20932;-70
2022/11/15 12:02:58;;;;;;;5.18;3.50;;;24.40;53.40;;;;;;5035543;28;20048;-70
2022/11/15 12:05:45;;;;;;;4.68;3.00;;;24.50;55.10;;;;;;5039069;28;20391;-69
2022/11/15 12:08:30;;;;;;;6.72;4.10;;;24.30;55.30;;;;;;5041692;28;20102;-71
2022/11/15 12:11:30;;;;;;;5.78;3.80;;;24.40;54.70;;;;;;5039844;28;20046;-70
2022/11/15 12:14:00;;;;;;;12.85;4.80;;;24.40;55.20;;;;;;5018255;28;20050;-70
2022/11/15 12:16:32;;;;;;;6.82;3.05;;;24.30;55.60;;;;;;5013720;28;20080;-71
2022/11/15 12:19:03;;;;;;;5.97;3.80;;;24.30;55.80;;;;;;4998489;28;20041;-69
2022/11/15 12:21:40;;;;;;;4.13;3.20;;;24.40;55.70;;;;;;5014206;28;20046;-69
2022/11/15 12:24:15;;;;;;;6.15;3.40;;;24.30;55.60;;;;;;5023809;28;20129;-70
2022/11/15 12:26:50;;;;;;;6.65;4.03;;;24.40;55.60;;;;;;5026088;28;20037;-69
2022/11/15 12:29:31;;;;;;;5.18;3.30;;;24.40;55.60;;;;;;5027832;28;20129;-70
2022/11/15 12:31:59;;;;;;;6.22;3.58;;;24.40;55.80;;;;;;5024295;28;20208;-68
2022/11/15 12:34:28;;;;;;;5.15;2.53;;;24.40;55.70;;;;;;5031289;28;20041;-70
2022/11/15 12:36:55;;;;;;;5.93;3.50;;;24.40;55.70;;;;;;5002898;28;20514;-72
2022/11/15 12:39:59;;;;;;;6.78;3.35;;;24.60;55.90;;;;;;5009788;28;20148;-68
2022/11/15 12:42:31;;;;;;;7.13;3.75;;;24.60;56.20;;;;;;4991137;28;20042;-70
2022/11/15 12:44:59;;;;;;;4.97;3.47;;;24.40;56.00;;;;;;5022130;28;20042;-70
2022/11/15 12:47:26;;;;;;;7.75;3.83;;;24.60;56.10;;;;;;5026606;28;20390;-70
2022/11/15 12:49:53;;;;;;;10.45;4.22;;;24.50;55.80;;;;;;5026552;28;20485;-70
2022/11/15 12:52:19;;;;;;;8.43;4.78;;;24.50;55.90;;;;;;5043284;28;20025;-71
2022/11/15 12:55:00;;;;;;;11.02;4.78;;;24.50;56.00;;;;;;5033803;28;20681;-71
2022/11/15 12:57:34;;;;;;;7.10;4.30;;;24.50;56.00;;;;;;5039837;28;20041;-71
2022/11/15 13:00:12;;;;;;;5.63;3.95;;;24.50;55.80;;;;;;5038784;28;20029;-70
2022/11/15 13:02:46;;;;;;;11.82;4.70;;;24.50;55.80;;;;;;5030671;28;20047;-70
2022/11/15 13:05:15;;;;;;;8.18;4.15;;;24.40;55.70;;;;;;5030997;28;20672;-71
2022/11/15 13:07:41;;;;;;;10.43;4.90;;;24.40;55.70;;;;;;5028533;28;20042;-71
2022/11/15 13:10:10;;;;;;;10.02;5.53;;;24.40;55.60;;;;;;5031428;28;20049;-71
2022/11/15 13:12:45;;;;;;;13.63;4.65;;;24.30;55.50;;;;;;5031619;28;20099;-71
2022/11/15 13:15:16;;;;;;;9.75;5.22;;;24.40;55.60;;;;;;5031733;28;20037;-71
2022/11/15 13:17:49;;;;;;;11.80;4.88;;;24.30;55.60;;;;;;5029749;28;20029;-71
2022/11/15 13:20:15;;;;;;;12.30;6.13;;;24.20;55.50;;;;;;5046386;28;20141;-71
2022/11/15 13:22:51;;;;;;;8.13;4.15;;;24.30;55.70;;;;;;5032728;28;20537;-71
2022/11/15 13:25:38;;;;;;;14.60;5.97;;;24.30;55.70;;;;;;5030045;28;20120;-70
2022/11/15 13:28:14;;;;;;;12.90;6.13;;;24.20;55.70;;;;;;5030763;28;20038;-71
2022/11/15 13:30:49;;;;;;;15.88;7.18;;;24.20;55.70;;;;;;5031552;28;20033;-71
2022/11/15 13:33:18;;;;;;;13.68;6.03;;;24.30;55.80;;;;;;5031359;28;20060;-70
2022/11/15 13:35:51;;;;;;;20.20;7.20;;;24.30;55.80;;;;;;5032662;28;20030;-70
2022/11/15 13:38:39;;;;;;;12.95;5.55;;;24.30;55.60;;;;;;5032217;28;20045;-70
2022/11/15 13:41:22;;;;;;;22.55;8.98;;;24.30;55.70;;;;;;5032102;28;20374;-70
2022/11/15 13:43:50;;;;;;;17.88;8.48;;;24.20;55.70;;;;;;5032335;28;20124;-71
2022/11/15 13:46:18;;;;;;;19.92;8.05;;;24.20;55.60;;;;;;5030633;28;20081;-71
2022/11/15 13:48:47;;;;;;;15.85;7.82;;;24.30;55.80;;;;;;5032105;28;20029;-71
2022/11/15 13:51:31;;;;;;;19.90;9.48;;;24.30;55.60;;;;;;5030836;28;20044;-71
2022/11/15 13:54:00;;;;;;;26.00;10.35;;;24.20;55.60;;;;;;5032130;28;20128;-71
2022/11/15 13:56:27;;;;;;;26.67;11.52;;;24.20;55.60;;;;;;5032044;28;20022;-71
2022/11/15 13:58:54;;;;;;;22.08;9.77;;;24.20;55.30;;;;;;5032098;28;20029;-70
2022/11/15 14:01:22;;;;;;;20.70;9.65;;;24.10;55.80;;;;;;5028655;28;20041;-71
2022/11/15 14:03:59;;;;;;;21.95;10.57;;;24.10;55.80;;;;;;5030940;28;20034;-71
2022/11/15 14:06:28;;;;;;;23.48;9.93;;;24.10;55.60;;;;;;5029899;28;20139;-70
2022/11/15 14:09:02;;;;;;;21.15;10.63;;;24.00;55.70;;;;;;5030911;28;20114;-71
2022/11/15 14:11:28;;;;;;;20.75;10.32;;;24.20;55.80;;;;;;5030364;28;20502;-71
2022/11/15 14:14:11;;;;;;;26.65;13.07;;;24.00;55.80;;;;;;5031024;28;20033;-71
2022/11/15 14:16:43;;;;;;;29.73;12.02;;;24.00;54.70;;;;;;5028941;28;20022;-71
2022/11/15 14:19:31;;;;;;;29.92;12.77;;;23.90;56.10;;;;;;5031020;28;20033;-70
2022/11/15 14:22:20;;;;;;;27.33;13.68;;;23.80;56.10;;;;;;5008643;28;20140;-70
2022/11/15 14:25:05;;;;;;;29.60;13.48;;;23.80;56.70;;;;;;5009053;28;20109;-71